KDYT

Details ICAO KDYT
Name Sky Harbor
Region United States
Timezone America/Chicago (UTC-6.0)
Plans Departing 1
Arriving 7
Stats Elevation 610 ft / 186 m (AMSL)
Location 46.721860° -92.043439°
Runways 1
Magnetic Variation 1.040° W
Sunrise 2017-12-14 13:46:58 UTC / 2017-12-14 07:46:58 Local
Sunset 2017-12-14 22:21:46 UTC / 2017-12-14 16:21:46 Local
Advertisement - Login to hide

Runways

ID Width Length Bearing (true) Bearing (mag) Surface Threshold Offset Overrun Length
14 75 ft / 23 m 3,046 ft / 928 m 138.33° 139.37° Asphalt 0 ft / 0 m 0 ft / 0 m
32 75 ft / 23 m 3,046 ft / 928 m 318.34° 319.38° Asphalt 0 ft / 0 m 0 ft / 0 m

Map

Weather


0- 5 10 15 20 25 30 35+ Temperature / ° C

Clouds and Precipitation
Forecast for 2017-12-15 06:00 UTC. Updated 2 hours ago

Ground ~20,000 ft ~40,000 ft Winds

METAR

KDYT 150455Z AUTO 26009KT 10SM OVC060 M08/M12 A2994 RMK AO2

TAF

Not found

Frequencies

Recorded 119.27 MHz AWOS 3
Clearance 124.80 MHz DULUTH CLNC DEL
Unicom 122.70 MHz CTAF/UNICOM
Approach 125.45 MHz DULUTH APP/DEP
Warning: Do not use this data for real-world aviation or navigation. No guarantee of current accuracy is given.